Time;durP1;ratioP1;P1;durP2;ratioP2;P2;SDS_P1;SDS_P2;PMS_P1;PMS_P2;Temp;Humidity;BMP_temperature;BMP_pressure;BME280_temperature;BME280_humidity;BME280_pressure;Samples;Min_cycle;Max_cycle;Signal;HPM_P1;HPM_P2
2022/10/10 00:02:18;;;;;;;;;;;;;;;16.66;59.46;95525.03;5010966;28;20025;-66
2022/10/10 00:04:43;;;;;;;;;;;;;;;16.62;59.19;95528.38;5009401;28;20072;-65
2022/10/10 00:07:08;;;;;;;;;;;;;;;16.62;59.65;95525.69;5011088;28;20018;-66
2022/10/10 00:09:34;;;;;;;;;;;;;;;16.64;59.50;95523.47;5008065;28;20072;-66
2022/10/10 00:11:59;;;;;;;;;;;;;;;16.63;59.64;95523.78;5010392;28;20015;-66
2022/10/10 00:14:24;;;;;;;;;;;;;;;16.67;59.61;95523.94;5010421;28;20022;-66
2022/10/10 00:16:49;;;;;;;;;;;;;;;16.68;59.59;95518.22;5010302;28;20157;-66
2022/10/10 00:19:15;;;;;;;;;;;;;;;16.70;59.41;95517.91;5008162;28;20026;-65
2022/10/10 00:21:40;;;;;;;;;;;;;;;16.69;59.33;95522.50;5009743;28;20383;-65
2022/10/10 00:24:05;;;;;;;;;;;;;;;16.67;59.35;95526.59;5009931;28;20022;-65
2022/10/10 00:26:30;;;;;;;;;;;;;;;16.66;59.56;95519.69;5010394;28;20120;-65
2022/10/10 00:28:55;;;;;;;;;;;;;;;16.72;59.34;95523.75;5009786;28;20069;-66
2022/10/10 00:31:21;;;;;;;;;;;;;;;16.75;59.41;95521.19;5010161;28;20554;-65
2022/10/10 00:33:46;;;;;;;;;;;;;;;16.76;59.28;95524.66;5008665;28;20018;-66
2022/10/10 00:36:11;;;;;;;;;;;;;;;16.76;59.36;95509.31;5008961;28;20029;-66
2022/10/10 00:38:37;;;;;;;;;;;;;;;16.80;59.40;95514.81;5010793;28;20017;-66
2022/10/10 00:41:03;;;;;;;;;;;;;;;16.83;59.34;95514.91;5009303;28;20053;-66
2022/10/10 00:43:29;;;;;;;;;;;;;;;16.84;59.53;95515.72;5009127;28;20020;-66
2022/10/10 00:45:54;;;;;;;;;;;;;;;16.86;59.29;95511.56;5008650;28;20120;-65
2022/10/10 00:48:19;;;;;;;;;;;;;;;16.89;59.59;95510.91;5010176;28;20021;-66
2022/10/10 00:50:51;;;;;;;;;;;;;;;16.89;59.65;95510.91;5010303;28;20128;-66
2022/10/10 00:53:18;;;;;;;;;;;;;;;16.94;59.44;95501.03;5009887;28;20061;-66
2022/10/10 00:55:43;;;;;;;;;;;;;;;16.92;59.67;95509.44;5010267;28;20064;-65
2022/10/10 00:58:09;;;;;;;;;;;;;;;16.85;59.41;95510.00;5006966;28;20026;-66
2022/10/10 01:00:34;;;;;;;;;;;;;;;16.73;60.22;95511.88;5006486;28;20601;-66
2022/10/10 01:03:00;;;;;;;;;;;;;;;16.62;60.67;95506.91;5009619;28;20052;-66
2022/10/10 01:05:25;;;;;;;;;;;;;;;16.78;60.40;95503.59;5008708;28;20068;-66
2022/10/10 01:07:51;;;;;;;;;;;;;;;16.78;60.51;95504.38;5008681;28;20062;-63
2022/10/10 01:10:18;;;;;;;;;;;;;;;16.76;60.61;95500.47;5008437;28;20430;-65
2022/10/10 01:12:59;;;;;;;;;;;;;;;16.81;60.45;95505.63;5009690;28;20589;-64
2022/10/10 01:15:30;;;;;;;;;;;;;;;16.79;60.74;95500.59;5008231;28;20064;-63
2022/10/10 01:18:00;;;;;;;;;;;;;;;16.66;60.60;95496.28;5007276;28;20104;-64
2022/10/10 01:20:35;;;;;;;;;;;;;;;16.58;60.66;95494.47;5019734;28;20018;-64
2022/10/10 01:23:19;;;;;;;;;;;;;;;16.53;61.16;95492.81;5009260;28;20014;-64
2022/10/10 01:25:54;;;;;;;;;;;;;;;16.47;61.50;95491.44;5007926;28;20533;-63
2022/10/10 01:28:32;;;;;;;;;;;;;;;16.54;61.60;95491.69;5008377;28;20032;-64
2022/10/10 01:30:57;;;;;;;;;;;;;;;16.40;62.01;95488.50;5009280;28;20180;-64
2022/10/10 01:33:35;;;;;;;;;;;;;;;16.50;61.78;95492.69;5008665;28;20157;-64
2022/10/10 01:36:10;;;;;;;;;;;;;;;16.47;61.87;95499.47;5010441;28;20025;-63
2022/10/10 01:38:54;;;;;;;;;;;;;;;16.50;61.80;95501.50;5008879;28;20091;-64
2022/10/10 01:41:23;;;;;;;;;;;;;;;16.49;61.84;95493.81;5004992;28;20143;-64
2022/10/10 01:43:51;;;;;;;;;;;;;;;16.40;61.67;95495.78;5008698;28;20065;-64
2022/10/10 01:46:17;;;;;;;;;;;;;;;16.31;61.98;95496.66;5009258;28;20014;-63
2022/10/10 01:48:44;;;;;;;;;;;;;;;16.02;62.29;95497.56;5009779;28;20037;-66
2022/10/10 01:51:28;;;;;;;;;;;;;;;16.18;62.43;95491.59;5009331;28;20014;-63
2022/10/10 01:54:02;;;;;;;;;;;;;;;15.94;62.65;95497.63;5009066;28;20018;-64
2022/10/10 01:56:45;;;;;;;;;;;;;;;16.10;62.94;95501.28;5007879;28;20014;-65
2022/10/10 01:59:16;;;;;;;;;;;;;;;16.10;62.84;95502.06;5009842;28;20011;-65
2022/10/10 02:02:04;;;;;;;;;;;;;;;15.88;63.28;95497.06;5009106;28;20025;-66
2022/10/10 02:04:37;;;;;;;;;;;;;;;15.98;62.88;95495.88;4998885;28;20021;-63
2022/10/10 02:07:07;;;;;;;;;;;;;;;15.59;64.61;95503.25;5009083;28;20058;-63
2022/10/10 02:09:37;;;;;;;;;;;;;;;15.36;65.08;95504.69;5009144;28;20021;-64
2022/10/10 02:12:03;;;;;;;;;;;;;;;15.41;65.44;95502.59;5008288;28;20022;-64
2022/10/10 02:14:55;;;;;;;;;;;;;;;14.84;67.75;95500.34;5008019;28;20022;-66
2022/10/10 02:17:23;;;;;;;;;;;;;;;15.33;66.20;95495.38;5005795;28;20066;-63
2022/10/10 02:19:51;;;;;;;;;;;;;;;15.00;67.46;95496.03;5008974;28;20097;-63
2022/10/10 02:22:17;;;;;;;;;;;;;;;14.80;67.57;95497.53;5007442;28;20026;-63
2022/10/10 02:24:43;;;;;;;;;;;;;;;15.51;66.15;95486.13;5009165;28;20068;-64
2022/10/10 02:27:11;;;;;;;;;;;;;;;15.77;65.43;95488.63;5010013;28;20113;-63
2022/10/10 02:29:38;;;;;;;;;;;;;;;15.99;64.92;95500.91;5008878;28;20075;-66
2022/10/10 02:32:35;;;;;;;;;;;;;;;15.43;64.01;95401.16;5008625;28;20018;-63
2022/10/10 02:35:05;;;;;;;;;;;;;;;15.93;63.65;95496.84;4994888;28;20022;-64
2022/10/10 02:37:31;;;;;;;;;;;;;;;15.89;63.79;95495.16;5009782;28;20022;-64
2022/10/10 02:39:58;;;;;;;;;;;;;;;16.08;63.92;95498.94;5008365;28;20053;-64
2022/10/10 02:42:25;;;;;;;;;;;;;;;16.24;63.39;95491.03;5009913;28;20068;-65
2022/10/10 02:44:50;;;;;;;;;;;;;;;16.37;63.16;95497.22;5008596;28;20390;-64
2022/10/10 02:47:16;;;;;;;;;;;;;;;16.47;62.79;95496.00;5007974;28;20018;-65
2022/10/10 02:49:42;;;;;;;;;;;;;;;16.58;62.45;95494.47;5007671;28;20068;-64
2022/10/10 02:52:08;;;;;;;;;;;;;;;16.63;62.10;95491.56;5009613;28;20538;-64
2022/10/10 02:54:33;;;;;;;;;;;;;;;16.70;61.87;95491.03;5012043;28;20018;-65
2022/10/10 02:56:58;;;;;;;;;;;;;;;16.73;61.31;95501.13;5013164;28;20015;-63
2022/10/10 02:59:24;;;;;;;;;;;;;;;16.75;61.19;95498.91;5010846;28;20028;-64
2022/10/10 03:01:49;;;;;;;;;;;;;;;16.71;60.70;95496.09;5012136;28;20112;-64
2022/10/10 03:04:15;;;;;;;;;;;;;;;16.57;60.52;95490.22;5011981;28;20010;-64
2022/10/10 03:06:40;;;;;;;;;;;;;;;16.58;60.91;95492.59;5012834;28;20015;-64
2022/10/10 03:09:05;;;;;;;;;;;;;;;16.59;61.09;95496.84;5011374;28;20018;-64
2022/10/10 03:11:31;;;;;;;;;;;;;;;16.61;60.98;95497.28;5012080;28;20014;-64
2022/10/10 03:13:56;;;;;;;;;;;;;;;16.62;61.08;95500.75;5011867;28;20716;-64
2022/10/10 03:16:21;;;;;;;;;;;;;;;16.61;61.23;95493.81;5011484;28;20018;-64
2022/10/10 03:18:46;;;;;;;;;;;;;;;16.63;61.15;95502.31;5011345;28;20018;-64
2022/10/10 03:21:12;;;;;;;;;;;;;;;16.68;61.24;95504.00;5010296;28;20014;-64
2022/10/10 03:23:37;;;;;;;;;;;;;;;16.60;60.67;95511.06;5010673;28;20025;-64
2022/10/10 03:26:03;;;;;;;;;;;;;;;16.14;61.75;95509.47;5012810;28;20060;-64
2022/10/10 03:28:28;;;;;;;;;;;;;;;16.31;61.96;95501.22;5011388;28;20014;-64
2022/10/10 03:30:54;;;;;;;;;;;;;;;15.73;63.61;95498.44;5009785;28;20025;-64
2022/10/10 03:33:20;;;;;;;;;;;;;;;15.69;63.54;95500.19;5011308;28;20041;-64
2022/10/10 03:35:46;;;;;;;;;;;;;;;16.03;63.49;95499.13;5012706;28;20068;-64
2022/10/10 03:38:14;;;;;;;;;;;;;;;16.00;63.43;95497.09;5011694;28;20530;-64
2022/10/10 03:40:40;;;;;;;;;;;;;;;16.16;63.54;95499.94;5012410;28;20014;-64
2022/10/10 03:43:06;;;;;;;;;;;;;;;16.25;63.33;95497.19;5011740;28;20018;-64
2022/10/10 03:45:31;;;;;;;;;;;;;;;16.35;62.90;95502.94;5010277;28;20129;-64
2022/10/10 03:47:56;;;;;;;;;;;;;;;16.30;62.79;95497.00;5012469;28;20105;-64
2022/10/10 03:50:22;;;;;;;;;;;;;;;16.35;62.75;95494.88;5009460;28;20525;-66
2022/10/10 03:52:47;;;;;;;;;;;;;;;16.38;62.54;95493.44;5011964;28;20072;-63
2022/10/10 03:55:12;;;;;;;;;;;;;;;16.41;62.68;95498.13;5011164;28;20040;-64
2022/10/10 03:57:37;;;;;;;;;;;;;;;16.51;62.55;95503.06;5010981;28;20015;-64
2022/10/10 04:00:03;;;;;;;;;;;;;;;16.53;62.28;95498.19;5010556;28;20022;-63
2022/10/10 04:02:28;;;;;;;;;;;;;;;15.41;62.34;95335.63;5010600;28;20058;-64
2022/10/10 04:04:53;;;;;;;;;;;;;;;16.67;61.94;95502.44;5011279;28;20037;-63
2022/10/10 04:07:19;;;;;;;;;;;;;;;16.67;61.71;95503.22;5010968;28;20137;-66
2022/10/10 04:09:44;;;;;;;;;;;;;;;16.72;61.61;95494.19;5010525;28;20367;-65
2022/10/10 04:12:09;;;;;;;;;;;;;;;16.53;61.81;95498.19;5009798;28;20018;-64
2022/10/10 04:14:34;;;;;;;;;;;;;;;16.28;62.52;95501.91;5011634;28;20029;-65
2022/10/10 04:17:00;;;;;;;;;;;;;;;16.32;63.00;95486.69;5010510;28;20025;-63
2022/10/10 04:19:25;;;;;;;;;;;;;;;16.42;63.02;95494.31;5009455;28;20029;-66
2022/10/10 04:21:50;;;;;;;;;;;;;;;16.36;63.04;95491.06;5010418;28;20018;-64
2022/10/10 04:24:16;;;;;;;;;;;;;;;16.44;62.62;95491.31;5010532;28;20018;-65
2022/10/10 04:26:41;;;;;;;;;;;;;;;16.50;62.72;95498.06;5009447;28;20018;-66
2022/10/10 04:29:07;;;;;;;;;;;;;;;16.56;62.52;95496.72;5010238;28;20498;-65
2022/10/10 04:31:32;;;;;;;;;;;;;;;16.64;62.51;95499.31;5008780;28;20510;-66
2022/10/10 04:33:57;;;;;;;;;;;;;;;16.64;62.44;95496.63;5011543;28;20025;-65
2022/10/10 04:36:23;;;;;;;;;;;;;;;16.70;62.37;95491.03;5009518;28;20049;-65
2022/10/10 04:38:48;;;;;;;;;;;;;;;16.71;61.90;95497.97;5010687;28;20068;-65
2022/10/10 04:41:13;;;;;;;;;;;;;;;16.70;61.87;95489.13;5008581;28;20022;-65
2022/10/10 04:43:39;;;;;;;;;;;;;;;16.70;61.49;95497.19;5011386;28;20011;-65
2022/10/10 04:46:07;;;;;;;;;;;;;;;16.62;61.14;95496.16;5007211;28;20018;-67
2022/10/10 04:48:33;;;;;;;;;;;;;;;16.41;61.78;95489.28;5008540;28;20014;-68
2022/10/10 04:50:58;;;;;;;;;;;;;;;16.42;62.22;95491.63;5011040;28;20010;-68
2022/10/10 04:53:24;;;;;;;;;;;;;;;16.41;61.97;95487.41;5010062;28;20022;-67
2022/10/10 04:55:49;;;;;;;;;;;;;;;16.28;62.25;95491.19;5010072;28;20525;-67
2022/10/10 04:58:15;;;;;;;;;;;;;;;16.38;61.60;95483.50;5010625;28;20383;-66
2022/10/10 05:00:40;;;;;;;;;;;;;;;16.39;61.36;95486.94;5006854;28;20010;-64
2022/10/10 05:03:05;;;;;;;;;;;;;;;16.34;61.17;95485.25;5006776;28;20382;-64
2022/10/10 05:05:31;;;;;;;;;;;;;;;16.32;60.94;95484.00;5005807;28;20143;-65
2022/10/10 05:07:56;;;;;;;;;;;;;;;16.28;61.09;95488.50;5011552;28;20010;-66
2022/10/10 05:10:21;;;;;;;;;;;;;;;16.27;61.13;95500.31;5011271;28;20014;-67
2022/10/10 05:12:47;;;;;;;;;;;;;;;16.22;61.15;95489.78;5009114;28;20072;-66
2022/10/10 05:15:13;;;;;;;;;;;;;;;16.21;61.36;95490.91;5005583;28;20024;-68
2022/10/10 05:17:38;;;;;;;;;;;;;;;16.20;61.53;95495.50;5010322;28;20044;-68
2022/10/10 05:20:03;;;;;;;;;;;;;;;16.17;61.25;95495.38;5009039;28;20018;-68
2022/10/10 05:22:29;;;;;;;;;;;;;;;16.14;61.45;95493.38;5010105;28;20022;-69
2022/10/10 05:24:54;;;;;;;;;;;;;;;16.10;61.35;95490.53;5008386;28;20495;-68
2022/10/10 05:27:19;;;;;;;;;;;;;;;16.06;61.68;95495.78;5008975;28;20509;-71
2022/10/10 05:29:44;;;;;;;;;;;;;;;15.89;61.91;95492.47;5009876;28;20018;-67
2022/10/10 05:32:10;;;;;;;;;;;;;;;15.94;62.21;95493.06;5009266;28;20018;-69
2022/10/10 05:34:35;;;;;;;;;;;;;;;15.99;62.26;95500.13;5006366;28;20124;-68
2022/10/10 05:37:00;;;;;;;;;;;;;;;16.04;61.99;95503.38;5008419;28;20014;-67
2022/10/10 05:39:26;;;;;;;;;;;;;;;16.14;61.85;95504.09;5009148;28;20060;-69
2022/10/10 05:41:51;;;;;;;;;;;;;;;16.16;61.64;95508.00;5008676;28;20056;-67
2022/10/10 05:44:16;;;;;;;;;;;;;;;16.16;61.67;95499.94;5005024;28;20014;-66
2022/10/10 05:46:41;;;;;;;;;;;;;;;16.19;61.56;95507.34;5006378;28;20025;-66
2022/10/10 05:49:06;;;;;;;;;;;;;;;16.21;61.52;95509.69;5011301;28;20022;-65
2022/10/10 05:51:32;;;;;;;;;;;;;;;15.80;62.11;95498.69;5008445;28;20105;-71
2022/10/10 05:53:57;;;;;;;;;;;;;;;15.89;62.39;95501.31;5010406;28;20068;-69
2022/10/10 05:56:22;;;;;;;;;;;;;;;15.62;63.26;95499.13;5008848;28;20018;-68
2022/10/10 05:58:49;;;;;;;;;;;;;;;15.32;64.23;95508.00;5010179;28;20014;-68
2022/10/10 06:01:15;;;;;;;;;;;;;;;15.79;63.91;95507.06;5008679;28;20018;-66
2022/10/10 06:03:40;;;;;;;;;;;;;;;16.05;63.39;95504.94;5008817;28;20065;-66
2022/10/10 06:06:05;;;;;;;;;;;;;;;16.28;62.89;95512.66;5008844;28;20025;-66
2022/10/10 06:08:31;;;;;;;;;;;;;;;16.47;62.58;95514.81;5007823;28;20025;-66
2022/10/10 06:11:00;;;;;;;;;;;;;;;16.68;62.08;95514.75;5006678;28;20029;-66
2022/10/10 06:13:25;;;;;;;;;;;;;;;16.87;61.24;95523.09;5007156;28;20394;-66
2022/10/10 06:15:51;;;;;;;;;;;;;;;17.05;60.73;95515.63;5005635;28;20125;-66
2022/10/10 06:18:16;;;;;;;;;;;;;;;16.58;60.11;95440.75;5000160;28;20014;-66
2022/10/10 06:20:41;;;;;;;;;;;;;;;17.25;59.80;95522.78;5003505;28;20061;-66
2022/10/10 06:23:07;;;;;;;;;;;;;;;17.39;59.31;95522.41;5008431;28;20108;-66
2022/10/10 06:25:33;;;;;;;;;;;;;;;17.51;58.66;95527.03;5010281;28;20011;-67
2022/10/10 06:27:58;;;;;;;;;;;;;;;17.60;58.44;95533.81;5011504;28;20021;-67
2022/10/10 06:30:23;;;;;;;;;;;;;;;17.63;57.89;95533.16;5007555;28;20457;-67
2022/10/10 06:32:49;;;;;;;;;;;;;;;17.59;57.67;95526.09;5012056;28;20461;-67
2022/10/10 06:35:14;;;;;;;;;;;;;;;17.63;57.63;95535.84;5012627;28;20558;-67
2022/10/10 06:37:39;;;;;;;;;;;;;;;17.70;57.21;95527.19;5013948;28;20010;-67
2022/10/10 06:40:05;;;;;;;;;;;;;;;17.75;57.21;95542.34;5011399;28;20113;-67
2022/10/10 06:42:31;;;;;;;;;;;;;;;17.99;56.24;95544.97;5013709;28;20015;-68
2022/10/10 06:44:56;;;;;;;;;;;;;;;18.07;56.36;95544.06;5010807;28;20079;-68
2022/10/10 06:47:21;;;;;;;;;;;;;;;18.17;55.88;95546.28;5013795;28;20039;-68
2022/10/10 06:49:46;;;;;;;;;;;;;;;18.29;55.89;95550.06;5013288;28;20064;-67
2022/10/10 06:52:11;;;;;;;;;;;;;;;18.33;55.25;95543.63;5012007;28;20479;-67
2022/10/10 06:54:37;;;;;;;;;;;;;;;18.40;54.85;95548.44;5012126;28;20018;-67
2022/10/10 06:57:02;;;;;;;;;;;;;;;18.55;54.42;95545.00;5011995;28;20022;-67
2022/10/10 06:59:27;;;;;;;;;;;;;;;18.63;54.03;95541.38;5012357;28;20014;-67
2022/10/10 07:01:53;;;;;;;;;;;;;;;18.72;53.80;95552.00;5012154;28;20554;-67
2022/10/10 07:04:18;;;;;;;;;;;;;;;18.84;53.27;95540.38;5011145;28;20018;-67
2022/10/10 07:06:43;;;;;;;;;;;;;;;18.93;53.40;95544.44;5011810;28;20482;-67
2022/10/10 07:09:08;;;;;;;;;;;;;;;19.04;52.64;95543.94;5013257;28;20025;-67
2022/10/10 07:11:34;;;;;;;;;;;;;;;19.14;52.30;95554.19;5012484;28;20026;-67
2022/10/10 07:13:59;;;;;;;;;;;;;;;19.19;52.68;95551.22;5012325;28;20015;-67
2022/10/10 07:16:24;;;;;;;;;;;;;;;19.26;52.39;95558.72;5013153;28;20081;-65
2022/10/10 07:18:50;;;;;;;;;;;;;;;19.37;51.83;95555.16;5012668;28;20056;-68
2022/10/10 07:21:15;;;;;;;;;;;;;;;19.49;51.55;95551.56;5011748;28;20074;-68
2022/10/10 07:23:40;;;;;;;;;;;;;;;19.59;51.60;95553.75;5010791;28;20385;-67
2022/10/10 07:26:09;;;;;;;;;;;;;;;19.75;50.78;95556.41;5013165;28;20061;-67
2022/10/10 07:28:34;;;;;;;;;;;;;;;19.81;50.76;95555.03;5011289;28;20014;-67
2022/10/10 07:31:01;;;;;;;;;;;;;;;19.91;50.45;95550.97;5011428;28;20141;-68
2022/10/10 07:33:30;;;;;;;;;;;;;;;20.02;50.51;95562.78;5010917;28;20029;-67
2022/10/10 07:35:55;;;;;;;;;;;;;;;20.11;50.17;95557.94;5011548;28;20022;-67
2022/10/10 07:38:20;;;;;;;;;;;;;;;20.16;50.21;95565.75;5011100;28;20021;-67
2022/10/10 07:40:45;;;;;;;;;;;;;;;20.26;50.22;95570.59;5011427;28;20087;-67
2022/10/10 07:43:11;;;;;;;;;;;;;;;20.30;50.05;95567.19;5012558;28;20015;-67
2022/10/10 07:45:36;;;;;;;;;;;;;;;20.42;50.03;95575.97;5011894;28;20014;-67
2022/10/10 07:48:01;;;;;;;;;;;;;;;20.53;49.67;95570.00;5011905;28;20024;-67
2022/10/10 07:50:27;;;;;;;;;;;;;;;20.63;49.62;95572.13;5011947;28;20010;-67
2022/10/10 07:52:52;;;;;;;;;;;;;;;20.68;49.44;95569.91;5012117;28;20407;-67
2022/10/10 07:55:17;;;;;;;;;;;;;;;20.75;49.32;95572.75;5011204;28;20057;-67
2022/10/10 07:57:42;;;;;;;;;;;;;;;20.86;48.90;95572.16;5011252;28;20094;-67
2022/10/10 08:00:08;;;;;;;;;;;;;;;20.86;48.49;95572.94;5010869;28;20017;-67
2022/10/10 08:02:33;;;;;;;;;;;;;;;20.96;48.66;95582.38;5008338;28;20612;-67
2022/10/10 08:04:59;;;;;;;;;;;;;;;21.07;48.75;95577.94;5011133;28;20020;-67
2022/10/10 08:07:24;;;;;;;;;;;;;;;21.20;48.20;95567.72;5012497;28;20010;-66
2022/10/10 08:09:49;;;;;;;;;;;;;;;21.38;47.98;95579.63;5011880;28;20514;-67
2022/10/10 08:12:14;;;;;;;;;;;;;;;21.45;47.85;95574.34;5011271;28;20014;-67
2022/10/10 08:14:39;;;;;;;;;;;;;;;21.62;47.61;95572.28;5009990;28;20076;-66
2022/10/10 08:17:05;;;;;;;;;;;;;;;21.78;47.56;95583.72;5010989;28;20497;-66
2022/10/10 08:19:30;;;;;;;;;;;;;;;21.94;47.17;95583.56;5011567;28;20018;-67
2022/10/10 08:21:55;;;;;;;;;;;;;;;22.08;47.21;95575.63;5040443;23;20405;-73
2022/10/10 08:24:20;;;;;;;;;;;;;;;22.17;46.42;95580.81;5033114;28;20420;-73
2022/10/10 08:26:46;;;;;;;;;;;;;;;22.34;45.86;95582.19;5033817;28;20020;-73
2022/10/10 08:29:11;;;;;;;;;;;;;;;22.43;45.82;95585.41;5033526;28;20434;-73
2022/10/10 08:31:36;;;;;;;;;;;;;;;22.66;45.29;95583.31;5032758;28;20014;-72
2022/10/10 08:34:01;;;;;;;;;;;;;;;22.81;44.74;95587.75;5051331;28;20014;-73
2022/10/10 08:36:27;;;;;;;;;;;;;;;22.89;44.11;95583.22;5023164;28;20017;-74
2022/10/10 08:38:56;;;;;;;;;;;;;;;23.02;44.86;95583.72;5017987;28;20025;-73
2022/10/10 08:41:40;;;;;;;;;;;;;;;23.16;44.32;95583.09;5031653;28;20553;-74
2022/10/10 08:44:05;;;;;;;;;;;;;;;23.33;44.18;95583.22;5033608;28;20013;-73
2022/10/10 08:46:38;;;;;;;;;;;;;;;23.38;43.61;95587.53;5050256;28;20043;-73
2022/10/10 08:49:12;;;;;;;;;;;;;;;23.46;43.21;95589.16;5050052;28;20021;-73
2022/10/10 08:51:39;;;;;;;;;;;;;;;23.58;42.83;95586.16;5032850;28;20013;-73
2022/10/10 08:54:05;;;;;;;;;;;;;;;23.64;43.35;95589.31;5051224;28;20055;-73
2022/10/10 08:56:32;;;;;;;;;;;;;;;23.78;42.93;95586.72;5039065;28;20058;-73
2022/10/10 08:59:14;;;;;;;;;;;;;;;23.94;42.56;95593.78;5031568;28;20009;-73
2022/10/10 09:01:39;;;;;;;;;;;;;;;23.76;42.32;95585.53;5032197;28;20018;-73
2022/10/10 09:04:05;;;;;;;;;;;;;;;23.81;42.36;95590.63;5032963;28;20101;-73
2022/10/10 09:06:49;;;;;;;;;;;;;;;24.02;42.50;95592.69;5050666;28;20020;-75
2022/10/10 09:09:24;;;;;;;;;;;;;;;24.15;42.00;95593.13;5050370;28;20104;-73
2022/10/10 09:11:56;;;;;;;;;;;;;;;24.33;41.81;95597.50;5050000;28;20127;-73
2022/10/10 09:14:27;;;;;;;;;;;;;;;24.37;40.96;95603.78;5032797;28;20071;-73
2022/10/10 09:16:56;;;;;;;;;;;;;;;24.72;41.03;95596.13;5049833;28;20559;-73
2022/10/10 09:19:44;;;;;;;;;;;;;;;23.87;40.96;95599.97;5032388;28;20519;-74
2022/10/10 09:22:12;;;;;;;;;;;;;;;23.60;42.37;95594.72;5021592;28;20108;-73
2022/10/10 09:24:41;;;;;;;;;;;;;;;24.35;41.50;95589.78;5049133;28;20017;-73
2022/10/10 09:27:11;;;;;;;;;;;;;;;23.68;41.73;95598.28;5050355;28;20024;-73
2022/10/10 09:29:41;;;;;;;;;;;;;;;22.89;43.83;95596.00;5050271;28;20017;-74
2022/10/10 09:32:12;;;;;;;;;;;;;;;21.98;45.83;95596.00;5031693;28;20051;-74
2022/10/10 09:34:37;;;;;;;;;;;;;;;22.63;44.67;95591.44;5050428;28;20115;-74
2022/10/10 09:37:09;;;;;;;;;;;;;;;23.10;43.63;95590.78;5032550;28;20474;-73
2022/10/10 09:39:37;;;;;;;;;;;;;;;23.61;42.68;95595.50;5050221;28;20028;-74
2022/10/10 09:42:04;;;;;;;;;;;;;;;23.35;42.92;95588.31;5031746;28;20021;-73
2022/10/10 09:44:30;;;;;;;;;;;;;;;22.82;44.13;95600.16;5032664;28;20382;-73
2022/10/10 09:46:57;;;;;;;;;;;;;;;21.46;47.20;95610.31;5049347;28;20018;-74
2022/10/10 09:49:22;;;;;;;;;;;;;;;21.11;48.65;95600.41;5050124;28;20474;-73
2022/10/10 09:51:48;;;;;;;;;;;;;;;21.73;47.64;95601.06;5045422;28;20116;-70
2022/10/10 09:54:15;;;;;;;;;;;;;;;22.99;45.74;95598.06;5032069;28;20014;-71
2022/10/10 09:56:46;;;;;;;;;;;;;;;23.66;43.48;95600.59;5050051;28;20367;-73
2022/10/10 09:59:30;;;;;;;;;;;;;;;21.69;47.23;95608.34;5031862;28;20468;-74
2022/10/10 10:02:00;;;;;;;;;;;;;;;21.96;46.90;95609.16;5042869;28;20018;-75
2022/10/10 10:04:30;;;;;;;;;;;;;;;21.73;48.13;95608.41;5050019;28;20045;-71
2022/10/10 10:07:03;;;;;;;;;;;;;;;21.66;48.23;95605.59;5032561;28;20028;-70
2022/10/10 10:09:28;;;;;;;;;;;;;;;21.59;48.53;95597.34;5049546;28;20143;-69
2022/10/10 10:11:55;;;;;;;;;;;;;;;21.35;49.19;95601.25;5032363;28;20067;-72
2022/10/10 10:14:24;;;;;;;;;;;;;;;21.32;50.26;95600.03;5032254;28;20096;-72
2022/10/10 10:16:49;;;;;;;;;;;;;;;21.98;48.22;95600.66;5031379;28;20017;-72
2022/10/10 10:19:28;;;;;;;;;;;;;;;21.57;49.80;95600.44;5049555;28;20010;-74
2022/10/10 10:21:54;;;;;;;;;;;;;;;20.99;51.21;95603.31;5030685;28;20063;-74
2022/10/10 10:24:23;;;;;;;;;;;;;;;22.39;48.12;95600.84;5031894;28;20017;-75
2022/10/10 10:26:48;;;;;;;;;;;;;;;22.51;48.41;95600.59;5032030;28;20060;-74
2022/10/10 10:29:29;;;;;;;;;;;;;;;21.77;48.79;95606.53;5049417;28;20013;-75
2022/10/10 10:31:54;;;;;;;;;;;;;;;21.29;50.52;95611.53;5049135;28;20017;-74
2022/10/10 10:34:20;;;;;;;;;;;;;;;21.58;49.43;95607.41;5038361;28;20109;-74
2022/10/10 10:36:45;;;;;;;;;;;;;;;21.06;50.68;95608.84;5038684;28;20021;-75
2022/10/10 10:39:30;;;;;;;;;;;;;;;21.68;49.65;95606.00;5031400;28;20053;-74
2022/10/10 10:42:01;;;;;;;;;;;;;;;21.85;48.96;95605.47;5031335;28;20020;-75
2022/10/10 10:44:46;;;;;;;;;;;;;;;22.57;47.34;95601.81;5027691;28;20056;-75
2022/10/10 10:47:12;;;;;;;;;;;;;;;22.45;48.13;95602.06;5031620;28;20040;-76
2022/10/10 10:50:03;;;;;;;;;;;;;;;21.92;48.91;95604.81;5049547;28;20382;-74
2022/10/10 10:52:28;;;;;;;;;;;;;;;22.12;47.99;95600.88;5040044;28;20159;-74
2022/10/10 10:54:59;;;;;;;;;;;;;;;21.72;49.22;95610.34;5011949;28;20105;-74
2022/10/10 10:57:33;;;;;;;;;;;;;;;22.21;48.36;95598.66;5029693;28;20010;-74
2022/10/10 11:00:02;;;;;;;;;;;;;;;22.99;46.26;95600.78;5012020;28;20017;-73
2022/10/10 11:02:46;;;;;;;;;;;;;;;22.09;48.77;95598.88;5042473;28;20025;-74
2022/10/10 11:05:15;;;;;;;;;;;;;;;22.75;47.80;95594.66;5031170;28;20018;-74
2022/10/10 11:08:01;;;;;;;;;;;;;;;22.41;47.80;95591.16;5031969;28;20019;-74
2022/10/10 11:10:34;;;;;;;;;;;;;;;22.26;48.39;95594.84;5027770;28;20009;-73
2022/10/10 11:12:59;;;;;;;;;;;;;;;21.87;49.01;95591.59;5048934;28;20017;-74
2022/10/10 11:15:38;;;;;;;;;;;;;;;22.20;48.09;95594.41;5034808;28;20028;-74
2022/10/10 11:18:11;;;;;;;;;;;;;;;23.25;46.48;95581.63;5052513;28;20497;-74
2022/10/10 11:20:40;;;;;;;;;;;;;;;23.00;46.49;95581.41;5051731;28;20170;-74
2022/10/10 11:23:16;;;;;;;;;;;;;;;24.10;44.98;95569.81;5034855;28;20017;-74
2022/10/10 11:25:44;;;;;;;;;;;;;;;22.81;46.43;95578.84;5052801;28;20009;-73
2022/10/10 11:28:14;;;;;;;;;;;;;;;23.86;44.36;95582.91;5052881;28;20016;-73
2022/10/10 11:30:43;;;;;;;;;;;;;;;23.86;44.75;95582.91;5033757;28;20021;-75
2022/10/10 11:33:08;;;;;;;;;;;;;;;23.81;44.89;95577.81;5051887;28;20018;-74
2022/10/10 11:35:46;;;;;;;;;;;;;;;23.61;45.16;95588.13;5034793;28;20045;-74
2022/10/10 11:38:11;;;;;;;;;;;;;;;22.78;47.06;95582.31;5052488;28;20040;-74
2022/10/10 11:40:45;;;;;;;;;;;;;;;24.03;44.59;95577.94;5052321;28;20055;-74
2022/10/10 11:43:17;;;;;;;;;;;;;;;23.77;44.03;95582.44;5047032;28;20017;-73
2022/10/10 11:45:44;;;;;;;;;;;;;;;23.24;45.32;95582.00;5052024;28;20870;-73
2022/10/10 11:48:18;;;;;;;;;;;;;;;24.66;43.32;95586.78;5051461;28;20449;-74
2022/10/10 11:50:43;;;;;;;;;;;;;;;23.99;44.23;95585.28;5034194;28;20009;-76
2022/10/10 11:53:27;;;;;;;;;;;;;;;24.02;43.96;95588.03;5052423;28;20063;-74
2022/10/10 11:55:57;;;;;;;;;;;;;;;25.25;41.63;95576.44;5051314;28;20018;-73
2022/10/10 11:58:25;;;;;;;;;;;;;;;24.88;42.24;95582.97;5034123;28;20121;-74
2022/10/10 12:00:54;;;;;;;;;;;;;;;26.10;41.34;95572.88;5034306;28;20014;-73
2022/10/10 12:03:20;;;;;;;;;;;;;;;24.78;42.25;95581.78;5045608;28;20041;-75
2022/10/10 12:05:50;;;;;;;;;;;;;;;25.55;41.15;95581.53;5034270;28;20449;-74
2022/10/10 12:08:20;;;;;;;;;;;;;;;25.74;40.21;95583.81;5052104;28;20416;-74
2022/10/10 12:11:06;;;;;;;;;;;;;;;25.96;39.92;95576.44;5034241;28;20094;-73
2022/10/10 12:13:39;;;;;;;;;;;;;;;24.24;42.39;95583.47;5030294;28;20389;-73
2022/10/10 12:16:13;;;;;;;;;;;;;;;23.64;44.04;95581.19;5032017;28;20024;-74
2022/10/10 12:18:43;;;;;;;;;;;;;;;24.35;43.50;95581.63;5049561;28;20019;-74
2022/10/10 12:21:11;;;;;;;;;;;;;;;24.35;42.55;95584.34;5050797;28;20029;-74
2022/10/10 12:23:36;;;;;;;;;;;;;;;24.00;43.92;95584.13;5050682;28;20044;-75
2022/10/10 12:26:02;;;;;;;;;;;;;;;24.32;42.81;95579.66;5051226;28;20013;-74
2022/10/10 12:28:32;;;;;;;;;;;;;;;25.01;41.83;95578.72;5051135;28;20023;-75
2022/10/10 12:31:06;;;;;;;;;;;;;;;23.71;43.55;95583.19;5051487;28;20009;-74
2022/10/10 12:33:31;;;;;;;;;;;;;;;23.96;43.03;95578.69;5050780;28;20051;-74
2022/10/10 12:36:17;;;;;;;;;;;;;;;24.26;43.40;95574.94;5043379;28;20021;-74
2022/10/10 12:39:00;;;;;;;;;;;;;;;25.08;41.59;95573.34;5050825;28;20013;-74
2022/10/10 12:41:41;;;;;;;;;;;;;;;25.27;41.22;95572.16;5033577;28;20104;-74
2022/10/10 12:44:23;;;;;;;;;;;;;;;24.18;43.25;95568.69;5032576;28;20454;-74
2022/10/10 12:47:24;;;;;;;;;;;;;;;24.37;43.21;95568.44;5032693;28;20013;-74
2022/10/10 12:49:50;;;;;;;;;;;;;;;24.07;43.55;95565.16;5016067;28;20017;-75
2022/10/10 12:52:34;;;;;;;;;;;;;;;24.36;43.47;95566.88;5024881;28;20027;-74
2022/10/10 12:55:29;;;;;;;;;;;;;;;24.29;43.75;95560.59;5033245;28;20028;-74